sensor_id;sensor_type;location;lat;lon;timestamp;P1;durP1;ratioP1;P2;durP2;ratioP2
36855;SDS011;22788;51.434;6.786;2023-04-25T00:01:02;9.47;;;3.93;;
36855;SDS011;22788;51.434;6.786;2023-04-25T00:03:28;8.67;;;4.53;;
36855;SDS011;22788;51.434;6.786;2023-04-25T00:05:53;8.70;;;3.80;;
36855;SDS011;22788;51.434;6.786;2023-04-25T00:08:19;7.60;;;4.53;;
36855;SDS011;22788;51.434;6.786;2023-04-25T00:10:44;7.50;;;3.93;;
36855;SDS011;22788;51.434;6.786;2023-04-25T00:13:10;10.90;;;4.10;;
36855;SDS011;22788;51.434;6.786;2023-04-25T00:15:35;10.20;;;4.03;;
36855;SDS011;22788;51.434;6.786;2023-04-25T00:18:02;7.23;;;3.60;;
36855;SDS011;22788;51.434;6.786;2023-04-25T00:20:28;8.83;;;3.50;;
36855;SDS011;22788;51.434;6.786;2023-04-25T00:22:54;8.73;;;4.40;;
36855;SDS011;22788;51.434;6.786;2023-04-25T00:25:20;13.07;;;4.90;;
36855;SDS011;22788;51.434;6.786;2023-04-25T00:27:46;9.27;;;4.13;;
36855;SDS011;22788;51.434;6.786;2023-04-25T00:30:12;7.33;;;4.03;;
36855;SDS011;22788;51.434;6.786;2023-04-25T00:32:38;7.30;;;4.10;;
36855;SDS011;22788;51.434;6.786;2023-04-25T00:35:06;7.20;;;4.23;;
36855;SDS011;22788;51.434;6.786;2023-04-25T00:37:32;10.50;;;4.80;;
36855;SDS011;22788;51.434;6.786;2023-04-25T00:39:58;8.53;;;4.40;;
36855;SDS011;22788;51.434;6.786;2023-04-25T00:42:23;12.97;;;3.83;;
36855;SDS011;22788;51.434;6.786;2023-04-25T00:44:49;8.70;;;4.63;;
36855;SDS011;22788;51.434;6.786;2023-04-25T00:47:17;8.93;;;4.80;;
36855;SDS011;22788;51.434;6.786;2023-04-25T00:49:43;7.83;;;4.57;;
36855;SDS011;22788;51.434;6.786;2023-04-25T00:52:10;8.43;;;4.20;;
36855;SDS011;22788;51.434;6.786;2023-04-25T00:54:36;10.17;;;4.73;;
36855;SDS011;22788;51.434;6.786;2023-04-25T00:57:02;9.90;;;4.73;;
36855;SDS011;22788;51.434;6.786;2023-04-25T00:59:28;11.90;;;4.30;;
36855;SDS011;22788;51.434;6.786;2023-04-25T01:01:53;10.07;;;4.80;;
36855;SDS011;22788;51.434;6.786;2023-04-25T01:04:19;10.40;;;3.83;;
36855;SDS011;22788;51.434;6.786;2023-04-25T01:06:45;7.80;;;4.10;;
36855;SDS011;22788;51.434;6.786;2023-04-25T01:09:12;6.57;;;4.30;;
36855;SDS011;22788;51.434;6.786;2023-04-25T01:11:38;10.90;;;4.33;;
36855;SDS011;22788;51.434;6.786;2023-04-25T01:14:03;9.07;;;4.53;;
36855;SDS011;22788;51.434;6.786;2023-04-25T01:16:29;10.50;;;4.43;;
36855;SDS011;22788;51.434;6.786;2023-04-25T01:18:55;11.87;;;4.27;;
36855;SDS011;22788;51.434;6.786;2023-04-25T01:21:23;8.63;;;4.07;;
36855;SDS011;22788;51.434;6.786;2023-04-25T01:23:49;8.33;;;3.80;;
36855;SDS011;22788;51.434;6.786;2023-04-25T01:26:15;7.63;;;3.70;;
36855;SDS011;22788;51.434;6.786;2023-04-25T01:28:40;12.93;;;4.33;;
36855;SDS011;22788;51.434;6.786;2023-04-25T01:31:06;7.97;;;3.93;;
36855;SDS011;22788;51.434;6.786;2023-04-25T01:33:33;8.53;;;4.20;;
36855;SDS011;22788;51.434;6.786;2023-04-25T01:35:59;6.80;;;3.37;;
36855;SDS011;22788;51.434;6.786;2023-04-25T01:38:26;9.43;;;3.80;;
36855;SDS011;22788;51.434;6.786;2023-04-25T01:40:51;10.50;;;4.07;;
36855;SDS011;22788;51.434;6.786;2023-04-25T01:43:18;8.57;;;4.17;;
36855;SDS011;22788;51.434;6.786;2023-04-25T01:45:44;9.63;;;3.60;;
36855;SDS011;22788;51.434;6.786;2023-04-25T01:48:10;6.23;;;3.53;;
36855;SDS011;22788;51.434;6.786;2023-04-25T01:50:37;6.37;;;3.90;;
36855;SDS011;22788;51.434;6.786;2023-04-25T01:53:03;6.00;;;3.50;;
36855;SDS011;22788;51.434;6.786;2023-04-25T01:55:31;5.37;;;3.40;;
36855;SDS011;22788;51.434;6.786;2023-04-25T01:57:56;8.13;;;3.53;;
36855;SDS011;22788;51.434;6.786;2023-04-25T02:00:22;6.37;;;3.60;;
36855;SDS011;22788;51.434;6.786;2023-04-25T02:02:48;11.33;;;3.50;;
36855;SDS011;22788;51.434;6.786;2023-04-25T02:05:14;8.63;;;3.53;;
36855;SDS011;22788;51.434;6.786;2023-04-25T02:07:39;5.90;;;3.40;;
36855;SDS011;22788;51.434;6.786;2023-04-25T02:10:05;6.57;;;3.57;;
36855;SDS011;22788;51.434;6.786;2023-04-25T02:12:33;7.13;;;3.13;;
36855;SDS011;22788;51.434;6.786;2023-04-25T02:14:58;7.93;;;3.50;;
36855;SDS011;22788;51.434;6.786;2023-04-25T02:17:24;8.37;;;3.87;;
36855;SDS011;22788;51.434;6.786;2023-04-25T02:19:49;8.33;;;3.50;;
36855;SDS011;22788;51.434;6.786;2023-04-25T02:22:15;9.50;;;3.40;;
36855;SDS011;22788;51.434;6.786;2023-04-25T02:24:41;7.83;;;3.53;;
36855;SDS011;22788;51.434;6.786;2023-04-25T02:27:06;9.17;;;3.67;;
36855;SDS011;22788;51.434;6.786;2023-04-25T02:29:33;6.10;;;3.53;;
36855;SDS011;22788;51.434;6.786;2023-04-25T02:31:59;8.03;;;3.20;;
36855;SDS011;22788;51.434;6.786;2023-04-25T02:34:25;7.87;;;3.27;;
36855;SDS011;22788;51.434;6.786;2023-04-25T02:36:51;5.80;;;3.27;;
36855;SDS011;22788;51.434;6.786;2023-04-25T02:39:16;5.70;;;3.20;;
36855;SDS011;22788;51.434;6.786;2023-04-25T02:41:42;6.53;;;3.20;;
36855;SDS011;22788;51.434;6.786;2023-04-25T02:44:08;8.23;;;3.27;;
36855;SDS011;22788;51.434;6.786;2023-04-25T02:46:35;6.40;;;3.20;;
36855;SDS011;22788;51.434;6.786;2023-04-25T02:49:00;5.60;;;2.90;;
36855;SDS011;22788;51.434;6.786;2023-04-25T02:51:26;4.77;;;3.30;;
36855;SDS011;22788;51.434;6.786;2023-04-25T02:53:51;7.87;;;3.63;;
36855;SDS011;22788;51.434;6.786;2023-04-25T02:56:17;5.57;;;3.17;;
36855;SDS011;22788;51.434;6.786;2023-04-25T02:58:43;5.07;;;3.33;;
36855;SDS011;22788;51.434;6.786;2023-04-25T03:01:09;4.73;;;2.97;;
36855;SDS011;22788;51.434;6.786;2023-04-25T03:03:36;5.97;;;3.30;;
36855;SDS011;22788;51.434;6.786;2023-04-25T03:06:01;6.30;;;3.10;;
36855;SDS011;22788;51.434;6.786;2023-04-25T03:08:27;6.90;;;3.03;;
36855;SDS011;22788;51.434;6.786;2023-04-25T03:10:53;5.80;;;3.23;;
36855;SDS011;22788;51.434;6.786;2023-04-25T03:13:18;7.63;;;3.57;;
36855;SDS011;22788;51.434;6.786;2023-04-25T03:15:44;7.00;;;3.20;;
36855;SDS011;22788;51.434;6.786;2023-04-25T03:18:09;4.77;;;2.80;;
36855;SDS011;22788;51.434;6.786;2023-04-25T03:20:36;6.80;;;3.07;;
36855;SDS011;22788;51.434;6.786;2023-04-25T03:23:02;8.37;;;3.33;;
36855;SDS011;22788;51.434;6.786;2023-04-25T03:25:28;4.50;;;2.97;;
36855;SDS011;22788;51.434;6.786;2023-04-25T03:27:53;4.33;;;2.93;;
36855;SDS011;22788;51.434;6.786;2023-04-25T03:30:19;4.73;;;2.87;;
36855;SDS011;22788;51.434;6.786;2023-04-25T03:32:44;7.03;;;3.73;;
36855;SDS011;22788;51.434;6.786;2023-04-25T03:35:10;7.97;;;2.87;;
36855;SDS011;22788;51.434;6.786;2023-04-25T03:37:37;7.83;;;3.70;;
36855;SDS011;22788;51.434;6.786;2023-04-25T03:40:03;7.80;;;4.10;;
36855;SDS011;22788;51.434;6.786;2023-04-25T03:42:29;5.87;;;3.03;;
36855;SDS011;22788;51.434;6.786;2023-04-25T03:44:55;7.87;;;3.17;;
36855;SDS011;22788;51.434;6.786;2023-04-25T03:47:20;9.40;;;3.87;;
36855;SDS011;22788;51.434;6.786;2023-04-25T03:49:46;9.70;;;3.27;;
36855;SDS011;22788;51.434;6.786;2023-04-25T03:52:12;7.40;;;2.93;;
36855;SDS011;22788;51.434;6.786;2023-04-25T03:54:38;8.10;;;2.93;;
36855;SDS011;22788;51.434;6.786;2023-04-25T03:57:04;5.17;;;2.83;;
36855;SDS011;22788;51.434;6.786;2023-04-25T03:59:30;5.80;;;3.03;;
36855;SDS011;22788;51.434;6.786;2023-04-25T04:01:55;6.53;;;3.40;;
36855;SDS011;22788;51.434;6.786;2023-04-25T04:04:21;8.00;;;3.10;;
36855;SDS011;22788;51.434;6.786;2023-04-25T04:06:47;7.80;;;2.70;;
36855;SDS011;22788;51.434;6.786;2023-04-25T04:09:13;8.67;;;3.33;;
36855;SDS011;22788;51.434;6.786;2023-04-25T04:11:40;10.73;;;3.27;;
36855;SDS011;22788;51.434;6.786;2023-04-25T04:14:06;10.37;;;2.83;;
36855;SDS011;22788;51.434;6.786;2023-04-25T04:16:32;9.07;;;2.77;;
36855;SDS011;22788;51.434;6.786;2023-04-25T04:18:58;7.73;;;3.30;;
36855;SDS011;22788;51.434;6.786;2023-04-25T04:21:23;9.07;;;3.47;;
36855;SDS011;22788;51.434;6.786;2023-04-25T04:23:49;8.50;;;3.17;;
36855;SDS011;22788;51.434;6.786;2023-04-25T04:26:14;10.27;;;3.40;;
36855;SDS011;22788;51.434;6.786;2023-04-25T04:28:42;6.33;;;3.17;;
36855;SDS011;22788;51.434;6.786;2023-04-25T04:31:08;8.00;;;3.27;;
36855;SDS011;22788;51.434;6.786;2023-04-25T04:33:33;7.37;;;3.30;;
36855;SDS011;22788;51.434;6.786;2023-04-25T04:35:59;12.73;;;3.60;;
36855;SDS011;22788;51.434;6.786;2023-04-25T04:38:25;8.90;;;3.40;;
36855;SDS011;22788;51.434;6.786;2023-04-25T04:40:50;6.03;;;3.23;;
36855;SDS011;22788;51.434;6.786;2023-04-25T04:43:16;9.73;;;3.27;;
36855;SDS011;22788;51.434;6.786;2023-04-25T04:45:43;9.10;;;3.33;;
36855;SDS011;22788;51.434;6.786;2023-04-25T04:48:09;7.07;;;3.40;;
36855;SDS011;22788;51.434;6.786;2023-04-25T04:50:34;10.50;;;3.57;;
36855;SDS011;22788;51.434;6.786;2023-04-25T04:53:00;9.97;;;3.63;;
36855;SDS011;22788;51.434;6.786;2023-04-25T04:55:26;6.93;;;3.03;;
36855;SDS011;22788;51.434;6.786;2023-04-25T04:57:52;3.73;;;2.57;;
36855;SDS011;22788;51.434;6.786;2023-04-25T05:00:18;8.53;;;2.97;;
36855;SDS011;22788;51.434;6.786;2023-04-25T05:02:45;8.17;;;3.03;;
36855;SDS011;22788;51.434;6.786;2023-04-25T05:05:11;6.03;;;3.13;;
36855;SDS011;22788;51.434;6.786;2023-04-25T05:07:36;10.53;;;2.80;;
36855;SDS011;22788;51.434;6.786;2023-04-25T05:10:02;4.70;;;3.00;;
36855;SDS011;22788;51.434;6.786;2023-04-25T05:12:28;10.53;;;3.77;;
36855;SDS011;22788;51.434;6.786;2023-04-25T05:14:54;13.40;;;3.30;;
36855;SDS011;22788;51.434;6.786;2023-04-25T05:17:20;6.40;;;3.23;;
36855;SDS011;22788;51.434;6.786;2023-04-25T05:19:47;6.80;;;3.20;;
36855;SDS011;22788;51.434;6.786;2023-04-25T05:22:12;8.57;;;3.30;;
36855;SDS011;22788;51.434;6.786;2023-04-25T05:24:38;8.67;;;3.00;;
36855;SDS011;22788;51.434;6.786;2023-04-25T05:27:04;9.53;;;3.10;;
36855;SDS011;22788;51.434;6.786;2023-04-25T05:29:29;4.67;;;3.27;;
36855;SDS011;22788;51.434;6.786;2023-04-25T05:31:55;9.67;;;3.07;;
36855;SDS011;22788;51.434;6.786;2023-04-25T05:34:20;10.03;;;3.50;;
36855;SDS011;22788;51.434;6.786;2023-04-25T05:36:47;11.17;;;3.43;;
36855;SDS011;22788;51.434;6.786;2023-04-25T05:39:13;6.13;;;3.20;;
36855;SDS011;22788;51.434;6.786;2023-04-25T05:41:39;9.87;;;3.13;;
36855;SDS011;22788;51.434;6.786;2023-04-25T05:44:04;7.80;;;2.90;;
36855;SDS011;22788;51.434;6.786;2023-04-25T05:46:30;8.60;;;3.30;;
36855;SDS011;22788;51.434;6.786;2023-04-25T05:48:55;8.30;;;3.13;;
36855;SDS011;22788;51.434;6.786;2023-04-25T05:51:21;5.27;;;3.17;;
36855;SDS011;22788;51.434;6.786;2023-04-25T05:53:48;7.83;;;3.33;;
36855;SDS011;22788;51.434;6.786;2023-04-25T05:56:14;8.67;;;3.33;;
36855;SDS011;22788;51.434;6.786;2023-04-25T05:58:40;8.23;;;3.50;;
36855;SDS011;22788;51.434;6.786;2023-04-25T06:01:05;8.37;;;3.27;;
36855;SDS011;22788;51.434;6.786;2023-04-25T06:03:31;7.37;;;3.13;;
36855;SDS011;22788;51.434;6.786;2023-04-25T06:05:56;9.80;;;3.80;;
36855;SDS011;22788;51.434;6.786;2023-04-25T06:08:22;8.37;;;3.60;;
36855;SDS011;22788;51.434;6.786;2023-04-25T06:10:49;8.10;;;3.40;;
36855;SDS011;22788;51.434;6.786;2023-04-25T06:13:14;8.03;;;2.90;;
36855;SDS011;22788;51.434;6.786;2023-04-25T06:15:40;9.93;;;3.80;;
36855;SDS011;22788;51.434;6.786;2023-04-25T06:18:06;6.33;;;3.30;;
36855;SDS011;22788;51.434;6.786;2023-04-25T06:20:32;7.90;;;3.50;;
36855;SDS011;22788;51.434;6.786;2023-04-25T06:22:57;9.83;;;3.83;;
36855;SDS011;22788;51.434;6.786;2023-04-25T06:25:23;11.83;;;3.70;;
36855;SDS011;22788;51.434;6.786;2023-04-25T06:27:50;9.27;;;3.53;;
36855;SDS011;22788;51.434;6.786;2023-04-25T06:30:15;8.57;;;3.93;;
36855;SDS011;22788;51.434;6.786;2023-04-25T06:32:41;10.23;;;3.73;;
36855;SDS011;22788;51.434;6.786;2023-04-25T06:35:07;15.13;;;4.07;;
36855;SDS011;22788;51.434;6.786;2023-04-25T06:37:33;7.77;;;3.50;;
36855;SDS011;22788;51.434;6.786;2023-04-25T06:39:59;10.30;;;3.70;;
36855;SDS011;22788;51.434;6.786;2023-04-25T06:42:24;10.57;;;4.37;;
36855;SDS011;22788;51.434;6.786;2023-04-25T06:44:51;12.73;;;5.43;;
36855;SDS011;22788;51.434;6.786;2023-04-25T06:47:17;5.33;;;3.30;;
36855;SDS011;22788;51.434;6.786;2023-04-25T06:49:42;7.77;;;4.00;;
36855;SDS011;22788;51.434;6.786;2023-04-25T06:52:08;7.83;;;3.50;;
36855;SDS011;22788;51.434;6.786;2023-04-25T06:54:34;8.23;;;3.40;;
36855;SDS011;22788;51.434;6.786;2023-04-25T06:56:59;9.83;;;3.57;;
36855;SDS011;22788;51.434;6.786;2023-04-25T06:59:25;10.57;;;3.77;;
36855;SDS011;22788;51.434;6.786;2023-04-25T07:01:52;11.80;;;4.17;;
36855;SDS011;22788;51.434;6.786;2023-04-25T07:04:18;9.93;;;3.47;;
36855;SDS011;22788;51.434;6.786;2023-04-25T07:06:43;8.57;;;3.63;;
36855;SDS011;22788;51.434;6.786;2023-04-25T07:09:09;7.77;;;4.07;;
36855;SDS011;22788;51.434;6.786;2023-04-25T07:11:34;13.47;;;3.67;;
36855;SDS011;22788;51.434;6.786;2023-04-25T07:14:00;9.87;;;3.47;;
36855;SDS011;22788;51.434;6.786;2023-04-25T07:16:26;10.77;;;3.67;;
36855;SDS011;22788;51.434;6.786;2023-04-25T07:18:53;13.67;;;4.13;;
36855;SDS011;22788;51.434;6.786;2023-04-25T07:21:18;7.57;;;3.63;;
36855;SDS011;22788;51.434;6.786;2023-04-25T07:23:44;9.57;;;3.53;;
36855;SDS011;22788;51.434;6.786;2023-04-25T07:26:09;10.23;;;4.60;;
36855;SDS011;22788;51.434;6.786;2023-04-25T07:28:35;12.37;;;3.80;;
36855;SDS011;22788;51.434;6.786;2023-04-25T07:31:01;7.70;;;3.30;;
36855;SDS011;22788;51.434;6.786;2023-04-25T07:33:26;7.97;;;4.07;;
36855;SDS011;22788;51.434;6.786;2023-04-25T07:35:53;14.13;;;4.13;;
36855;SDS011;22788;51.434;6.786;2023-04-25T07:38:19;15.10;;;4.17;;
36855;SDS011;22788;51.434;6.786;2023-04-25T07:40:45;8.00;;;4.07;;
36855;SDS011;22788;51.434;6.786;2023-04-25T07:43:11;11.87;;;3.93;;
36855;SDS011;22788;51.434;6.786;2023-04-25T07:45:37;11.10;;;4.27;;
36855;SDS011;22788;51.434;6.786;2023-04-25T07:48:03;18.37;;;5.00;;
36855;SDS011;22788;51.434;6.786;2023-04-25T07:50:28;9.53;;;3.50;;
36855;SDS011;22788;51.434;6.786;2023-04-25T07:52:55;8.37;;;3.77;;
36855;SDS011;22788;51.434;6.786;2023-04-25T07:55:21;10.60;;;3.87;;
36855;SDS011;22788;51.434;6.786;2023-04-25T07:57:47;9.30;;;4.17;;
36855;SDS011;22788;51.434;6.786;2023-04-25T08:00:13;7.97;;;3.37;;
36855;SDS011;22788;51.434;6.786;2023-04-25T08:02:39;8.30;;;3.33;;
36855;SDS011;22788;51.434;6.786;2023-04-25T08:05:05;10.60;;;4.10;;
36855;SDS011;22788;51.434;6.786;2023-04-25T08:07:30;7.90;;;3.50;;
36855;SDS011;22788;51.434;6.786;2023-04-25T08:09:57;10.77;;;4.77;;
36855;SDS011;22788;51.434;6.786;2023-04-25T08:12:23;8.90;;;4.37;;
36855;SDS011;22788;51.434;6.786;2023-04-25T08:14:49;12.27;;;4.37;;
36855;SDS011;22788;51.434;6.786;2023-04-25T08:17:14;9.73;;;3.93;;
36855;SDS011;22788;51.434;6.786;2023-04-25T08:19:40;10.13;;;3.67;;
36855;SDS011;22788;51.434;6.786;2023-04-25T08:22:05;6.67;;;3.40;;
36855;SDS011;22788;51.434;6.786;2023-04-25T08:24:31;9.53;;;3.70;;
36855;SDS011;22788;51.434;6.786;2023-04-25T08:26:58;10.80;;;4.23;;
36855;SDS011;22788;51.434;6.786;2023-04-25T08:29:23;12.20;;;3.80;;
36855;SDS011;22788;51.434;6.786;2023-04-25T08:31:49;9.10;;;4.17;;
36855;SDS011;22788;51.434;6.786;2023-04-25T08:34:15;7.73;;;4.20;;
36855;SDS011;22788;51.434;6.786;2023-04-25T08:36:40;11.53;;;4.30;;
36855;SDS011;22788;51.434;6.786;2023-04-25T08:39:06;14.60;;;3.80;;
36855;SDS011;22788;51.434;6.786;2023-04-25T08:41:31;14.98;;;4.47;;
36855;SDS011;22788;51.434;6.786;2023-04-25T08:44:00;10.38;;;3.72;;
36855;SDS011;22788;51.434;6.786;2023-04-25T08:46:27;15.97;;;3.60;;
36855;SDS011;22788;51.434;6.786;2023-04-25T08:48:55;8.60;;;3.33;;
36855;SDS011;22788;51.434;6.786;2023-04-25T08:51:26;5.60;;;3.43;;
36855;SDS011;22788;51.434;6.786;2023-04-25T08:53:55;9.20;;;3.10;;
36855;SDS011;22788;51.434;6.786;2023-04-25T08:56:26;7.20;;;2.50;;
36855;SDS011;22788;51.434;6.786;2023-04-25T08:58:52;6.80;;;2.50;;
36855;SDS011;22788;51.434;6.786;2023-04-25T09:01:21;9.53;;;2.73;;
36855;SDS011;22788;51.434;6.786;2023-04-25T09:03:47;7.43;;;2.50;;
36855;SDS011;22788;51.434;6.786;2023-04-25T09:06:13;7.23;;;2.87;;
36855;SDS011;22788;51.434;6.786;2023-04-25T09:08:39;9.83;;;2.70;;
36855;SDS011;22788;51.434;6.786;2023-04-25T09:11:04;9.10;;;3.67;;
36855;SDS011;22788;51.434;6.786;2023-04-25T09:13:30;7.77;;;2.23;;
36855;SDS011;22788;51.434;6.786;2023-04-25T09:15:56;7.57;;;2.80;;
36855;SDS011;22788;51.434;6.786;2023-04-25T09:18:24;9.70;;;2.73;;
36855;SDS011;22788;51.434;6.786;2023-04-25T09:20:51;8.27;;;2.60;;
36855;SDS011;22788;51.434;6.786;2023-04-25T09:23:17;6.97;;;2.43;;
36855;SDS011;22788;51.434;6.786;2023-04-25T09:25:44;5.43;;;2.33;;
36855;SDS011;22788;51.434;6.786;2023-04-25T09:28:12;9.77;;;3.10;;
36855;SDS011;22788;51.434;6.786;2023-04-25T09:30:38;7.53;;;2.70;;
36855;SDS011;22788;51.434;6.786;2023-04-25T09:33:04;10.13;;;2.80;;
36855;SDS011;22788;51.434;6.786;2023-04-25T09:35:32;5.27;;;2.43;;
36855;SDS011;22788;51.434;6.786;2023-04-25T09:38:00;8.43;;;2.17;;
36855;SDS011;22788;51.434;6.786;2023-04-25T09:40:26;8.57;;;2.33;;
36855;SDS011;22788;51.434;6.786;2023-04-25T09:42:52;6.13;;;2.13;;
36855;SDS011;22788;51.434;6.786;2023-04-25T09:45:17;6.97;;;2.40;;
36855;SDS011;22788;51.434;6.786;2023-04-25T09:47:43;5.00;;;1.80;;
36855;SDS011;22788;51.434;6.786;2023-04-25T09:50:13;8.10;;;2.33;;
36855;SDS011;22788;51.434;6.786;2023-04-25T09:52:41;6.30;;;2.00;;
36855;SDS011;22788;51.434;6.786;2023-04-25T09:55:07;3.40;;;2.20;;
36855;SDS011;22788;51.434;6.786;2023-04-25T09:57:33;2.33;;;1.57;;
36855;SDS011;22788;51.434;6.786;2023-04-25T10:00:00;2.50;;;1.60;;
36855;SDS011;22788;51.434;6.786;2023-04-25T10:02:26;5.57;;;2.00;;
36855;SDS011;22788;51.434;6.786;2023-04-25T10:04:53;4.37;;;1.80;;
36855;SDS011;22788;51.434;6.786;2023-04-25T10:07:20;9.20;;;2.77;;
36855;SDS011;22788;51.434;6.786;2023-04-25T10:09:48;6.83;;;1.87;;
36855;SDS011;22788;51.434;6.786;2023-04-25T10:12:14;7.70;;;1.93;;
36855;SDS011;22788;51.434;6.786;2023-04-25T10:14:41;4.67;;;1.80;;
36855;SDS011;22788;51.434;6.786;2023-04-25T10:17:08;4.03;;;1.53;;
36855;SDS011;22788;51.434;6.786;2023-04-25T10:19:35;6.77;;;1.77;;
36855;SDS011;22788;51.434;6.786;2023-04-25T10:22:03;3.60;;;2.03;;
36855;SDS011;22788;51.434;6.786;2023-04-25T10:24:32;6.50;;;1.80;;
36855;SDS011;22788;51.434;6.786;2023-04-25T10:26:59;5.77;;;2.20;;
36855;SDS011;22788;51.434;6.786;2023-04-25T10:29:25;3.60;;;1.67;;
36855;SDS011;22788;51.434;6.786;2023-04-25T10:31:51;5.50;;;1.70;;
36855;SDS011;22788;51.434;6.786;2023-04-25T10:34:17;6.27;;;1.80;;
36855;SDS011;22788;51.434;6.786;2023-04-25T10:36:44;4.85;;;1.70;;
36855;SDS011;22788;51.434;6.786;2023-04-25T10:39:14;4.47;;;1.67;;
36855;SDS011;22788;51.434;6.786;2023-04-25T10:41:47;6.47;;;2.15;;
36855;SDS011;22788;51.434;6.786;2023-04-25T10:44:19;5.30;;;1.80;;
36855;SDS011;22788;51.434;6.786;2023-04-25T10:46:44;6.13;;;1.70;;
36855;SDS011;22788;51.434;6.786;2023-04-25T10:49:10;4.33;;;1.53;;
36855;SDS011;22788;51.434;6.786;2023-04-25T10:51:58;5.80;;;1.80;;
36855;SDS011;22788;51.434;6.786;2023-04-25T10:54:44;5.80;;;2.63;;
36855;SDS011;22788;51.434;6.786;2023-04-25T10:57:31;6.10;;;2.57;;
36855;SDS011;22788;51.434;6.786;2023-04-25T11:00:06;5.80;;;1.70;;
36855;SDS011;22788;51.434;6.786;2023-04-25T11:02:36;4.10;;;1.57;;
36855;SDS011;22788;51.434;6.786;2023-04-25T11:05:03;5.60;;;1.60;;
36855;SDS011;22788;51.434;6.786;2023-04-25T11:07:32;5.97;;;1.90;;
36855;SDS011;22788;51.434;6.786;2023-04-25T11:10:02;3.23;;;1.63;;
36855;SDS011;22788;51.434;6.786;2023-04-25T11:12:29;4.67;;;1.53;;
36855;SDS011;22788;51.434;6.786;2023-04-25T11:14:58;3.87;;;1.50;;
36855;SDS011;22788;51.434;6.786;2023-04-25T11:17:26;3.80;;;1.77;;
36855;SDS011;22788;51.434;6.786;2023-04-25T11:19:51;7.30;;;2.10;;
36855;SDS011;22788;51.434;6.786;2023-04-25T11:22:18;6.97;;;1.70;;
36855;SDS011;22788;51.434;6.786;2023-04-25T11:24:46;3.70;;;1.53;;
36855;SDS011;22788;51.434;6.786;2023-04-25T11:27:12;3.90;;;1.77;;
36855;SDS011;22788;51.434;6.786;2023-04-25T11:29:37;9.07;;;1.90;;
36855;SDS011;22788;51.434;6.786;2023-04-25T11:32:03;5.93;;;2.00;;
36855;SDS011;22788;51.434;6.786;2023-04-25T11:46:55;8.20;;;2.17;;
36855;SDS011;22788;51.434;6.786;2023-04-25T11:49:21;4.30;;;1.80;;
36855;SDS011;22788;51.434;6.786;2023-04-25T11:51:47;6.63;;;2.10;;
36855;SDS011;22788;51.434;6.786;2023-04-25T11:54:14;5.53;;;2.30;;
36855;SDS011;22788;51.434;6.786;2023-04-25T11:56:49;4.33;;;1.60;;
36855;SDS011;22788;51.434;6.786;2023-04-25T12:06:04;7.20;;;2.00;;
36855;SDS011;22788;51.434;6.786;2023-04-25T12:08:59;5.07;;;1.70;;
36855;SDS011;22788;51.434;6.786;2023-04-25T12:14:41;5.37;;;1.90;;
36855;SDS011;22788;51.434;6.786;2023-04-25T12:17:13;3.20;;;1.53;;
36855;SDS011;22788;51.434;6.786;2023-04-25T12:19:47;3.80;;;2.20;;
36855;SDS011;22788;51.434;6.786;2023-04-25T12:22:25;6.10;;;2.00;;
36855;SDS011;22788;51.434;6.786;2023-04-25T12:24:57;5.13;;;2.20;;
36855;SDS011;22788;51.434;6.786;2023-04-25T12:27:23;6.67;;;2.03;;
36855;SDS011;22788;51.434;6.786;2023-04-25T12:29:55;7.03;;;2.37;;
36855;SDS011;22788;51.434;6.786;2023-04-25T12:32:22;4.37;;;1.90;;
36855;SDS011;22788;51.434;6.786;2023-04-25T12:34:49;5.00;;;1.90;;
36855;SDS011;22788;51.434;6.786;2023-04-25T12:37:17;3.47;;;1.80;;
36855;SDS011;22788;51.434;6.786;2023-04-25T12:39:43;4.67;;;1.70;;
36855;SDS011;22788;51.434;6.786;2023-04-25T12:42:11;5.57;;;2.17;;
36855;SDS011;22788;51.434;6.786;2023-04-25T12:44:38;3.17;;;1.40;;
36855;SDS011;22788;51.434;6.786;2023-04-25T12:47:07;4.27;;;1.77;;
36855;SDS011;22788;51.434;6.786;2023-04-25T12:49:34;6.27;;;2.00;;
36855;SDS011;22788;51.434;6.786;2023-04-25T12:52:01;3.27;;;1.80;;
36855;SDS011;22788;51.434;6.786;2023-04-25T12:54:28;3.40;;;2.03;;
36855;SDS011;22788;51.434;6.786;2023-04-25T12:56:56;5.93;;;2.00;;
36855;SDS011;22788;51.434;6.786;2023-04-25T12:59:23;3.40;;;1.77;;
36855;SDS011;22788;51.434;6.786;2023-04-25T13:01:51;4.60;;;1.60;;
36855;SDS011;22788;51.434;6.786;2023-04-25T13:04:20;4.27;;;1.73;;
36855;SDS011;22788;51.434;6.786;2023-04-25T13:06:47;5.00;;;2.23;;
36855;SDS011;22788;51.434;6.786;2023-04-25T13:09:13;2.73;;;1.63;;
36855;SDS011;22788;51.434;6.786;2023-04-25T13:11:38;3.50;;;1.60;;
36855;SDS011;22788;51.434;6.786;2023-04-25T13:14:04;6.20;;;2.23;;
36855;SDS011;22788;51.434;6.786;2023-04-25T13:16:30;2.93;;;1.73;;
36855;SDS011;22788;51.434;6.786;2023-04-25T13:18:55;3.90;;;1.77;;
36855;SDS011;22788;51.434;6.786;2023-04-25T13:21:22;7.23;;;1.83;;
36855;SDS011;22788;51.434;6.786;2023-04-25T13:23:48;8.63;;;1.67;;
36855;SDS011;22788;51.434;6.786;2023-04-25T13:26:13;3.93;;;1.60;;
36855;SDS011;22788;51.434;6.786;2023-04-25T13:28:40;7.10;;;1.90;;
36855;SDS011;22788;51.434;6.786;2023-04-25T13:31:05;5.83;;;1.83;;
36855;SDS011;22788;51.434;6.786;2023-04-25T13:33:31;5.03;;;2.00;;
36855;SDS011;22788;51.434;6.786;2023-04-25T13:35:56;5.10;;;1.60;;
36855;SDS011;22788;51.434;6.786;2023-04-25T13:38:24;8.80;;;1.90;;
36855;SDS011;22788;51.434;6.786;2023-04-25T13:40:50;4.43;;;1.90;;
36855;SDS011;22788;51.434;6.786;2023-04-25T13:43:16;5.57;;;1.70;;
36855;SDS011;22788;51.434;6.786;2023-04-25T13:45:41;5.07;;;1.50;;
36855;SDS011;22788;51.434;6.786;2023-04-25T13:48:07;3.87;;;2.00;;
36855;SDS011;22788;51.434;6.786;2023-04-25T13:50:33;5.17;;;1.70;;
36855;SDS011;22788;51.434;6.786;2023-04-25T13:52:58;3.67;;;1.60;;
36855;SDS011;22788;51.434;6.786;2023-04-25T13:55:25;3.40;;;1.47;;
36855;SDS011;22788;51.434;6.786;2023-04-25T13:57:51;4.03;;;1.30;;
36855;SDS011;22788;51.434;6.786;2023-04-25T14:00:17;7.97;;;1.70;;
36855;SDS011;22788;51.434;6.786;2023-04-25T14:02:43;4.20;;;1.70;;
36855;SDS011;22788;51.434;6.786;2023-04-25T14:05:08;3.33;;;1.37;;
36855;SDS011;22788;51.434;6.786;2023-04-25T14:07:34;4.27;;;1.40;;
36855;SDS011;22788;51.434;6.786;2023-04-25T14:10:00;3.40;;;1.30;;
36855;SDS011;22788;51.434;6.786;2023-04-25T14:12:27;3.17;;;1.27;;
36855;SDS011;22788;51.434;6.786;2023-04-25T14:14:53;4.30;;;1.80;;
36855;SDS011;22788;51.434;6.786;2023-04-25T14:17:18;5.57;;;1.73;;
36855;SDS011;22788;51.434;6.786;2023-04-25T14:19:44;5.07;;;1.20;;
36855;SDS011;22788;51.434;6.786;2023-04-25T14:22:10;3.10;;;1.50;;
36855;SDS011;22788;51.434;6.786;2023-04-25T14:24:35;5.67;;;1.53;;
36855;SDS011;22788;51.434;6.786;2023-04-25T14:27:01;3.20;;;1.20;;
36855;SDS011;22788;51.434;6.786;2023-04-25T14:29:28;3.57;;;1.53;;
36855;SDS011;22788;51.434;6.786;2023-04-25T14:31:54;2.93;;;1.43;;
36855;SDS011;22788;51.434;6.786;2023-04-25T14:34:19;3.43;;;1.40;;
36855;SDS011;22788;51.434;6.786;2023-04-25T14:36:45;3.63;;;1.83;;
36855;SDS011;22788;51.434;6.786;2023-04-25T14:39:10;4.27;;;1.30;;
36855;SDS011;22788;51.434;6.786;2023-04-25T14:41:37;3.03;;;1.60;;
36855;SDS011;22788;51.434;6.786;2023-04-25T14:44:02;2.40;;;1.40;;
36855;SDS011;22788;51.434;6.786;2023-04-25T14:46:29;4.33;;;1.73;;
36855;SDS011;22788;51.434;6.786;2023-04-25T14:48:55;4.63;;;1.47;;
36855;SDS011;22788;51.434;6.786;2023-04-25T14:51:21;4.70;;;1.60;;
36855;SDS011;22788;51.434;6.786;2023-04-25T14:53:46;3.50;;;1.40;;
36855;SDS011;22788;51.434;6.786;2023-04-25T14:56:12;5.57;;;1.20;;
36855;SDS011;22788;51.434;6.786;2023-04-25T14:58:38;5.70;;;1.60;;
36855;SDS011;22788;51.434;6.786;2023-04-25T15:01:04;2.13;;;1.50;;
36855;SDS011;22788;51.434;6.786;2023-04-25T15:03:31;4.37;;;1.50;;